Time;durP1;ratioP1;P1;durP2;ratioP2;P2;SDS_P1;SDS_P2;PMS_P1;PMS_P2;Temp;Humidity;BMP_temperature;BMP_pressure;BME280_temperature;BME280_humidity;BME280_pressure;Samples;Min_cycle;Max_cycle;Signal;HPM_P1;HPM_P2
2021/04/15 00:01:20;;;;;;;20.77;13.93;;;;;;;;;;5096441;28;20062;-65
2021/04/15 00:03:46;;;;;;;22.85;12.63;;;;;;;;;;5095806;28;20016;-67
2021/04/15 00:06:17;;;;;;;17.75;13.02;;;;;;;;;;5111160;28;20393;-65
2021/04/15 00:08:43;;;;;;;21.08;13.52;;;;;;;;;;5108438;28;20103;-65
2021/04/15 00:11:10;;;;;;;21.60;12.82;;;;;;;;;;5113246;28;20467;-66
2021/04/15 00:13:38;;;;;;;21.33;13.95;;;;;;;;;;5113787;28;20031;-66
2021/04/15 00:16:05;;;;;;;20.42;13.45;;;;;;;;;;5105424;28;20559;-67
2021/04/15 00:18:31;;;;;;;22.90;13.13;;;;;;;;;;5101297;28;20036;-65
2021/04/15 00:20:57;;;;;;;20.02;12.80;;;;;;;;;;5110283;28;20099;-65
2021/04/15 00:23:23;;;;;;;20.85;12.95;;;;;;;;;;5102918;28;20027;-66
2021/04/15 00:25:50;;;;;;;22.35;13.30;;;;;;;;;;5109536;28;20452;-67
2021/04/15 00:28:16;;;;;;;17.65;12.50;;;;;;;;;;5095705;28;20024;-67
2021/04/15 00:30:42;;;;;;;22.35;13.57;;;;;;;;;;5106898;28;20062;-66
2021/04/15 00:33:10;;;;;;;19.77;13.43;;;;;;;;;;5105739;28;20484;-67
2021/04/15 00:35:36;;;;;;;25.05;13.77;;;;;;;;;;5091181;28;20028;-67
2021/04/15 00:38:03;;;;;;;21.85;13.63;;;;;;;;;;5098230;28;20042;-64
2021/04/15 00:40:29;;;;;;;19.45;13.15;;;;;;;;;;5105585;28;20024;-66
2021/04/15 00:42:55;;;;;;;18.40;12.10;;;;;;;;;;5114848;28;20027;-66
2021/04/15 00:45:25;;;;;;;19.48;13.68;;;;;;;;;;5095875;28;20032;-66
2021/04/15 00:48:07;;;;;;;18.90;12.65;;;;;;;;;;5104972;28;20054;-66
2021/04/15 00:50:35;;;;;;;20.38;12.55;;;;;;;;;;5104917;28;20035;-66
2021/04/15 00:53:02;;;;;;;18.25;14.13;;;;;;;;;;5106867;28;20030;-66
2021/04/15 00:55:30;;;;;;;20.80;12.65;;;;;;;;;;5102657;28;20024;-64
2021/04/15 00:57:57;;;;;;;19.42;13.05;;;;;;;;;;5095666;28;20076;-65
2021/04/15 01:00:27;;;;;;;19.15;12.90;;;;;;;;;;5095609;28;20099;-69
2021/04/15 01:02:54;;;;;;;18.65;13.38;;;;;;;;;;5093637;28;20044;-67
2021/04/15 01:05:20;;;;;;;18.77;13.68;;;;;;;;;;5098232;28;20095;-67
2021/04/15 01:07:46;;;;;;;19.15;13.45;;;;;;;;;;5093930;28;20027;-65
2021/04/15 01:10:13;;;;;;;20.15;11.80;;;;;;;;;;5100924;28;20016;-66
2021/04/15 01:13:12;;;;;;;23.25;13.82;;;;;;;;;;5101631;28;20035;-67
2021/04/15 01:16:16;;;;;;;20.60;12.93;;;;;;;;;;5038409;28;20040;-67
2021/04/15 01:18:45;;;;;;;26.00;14.93;;;;;;;;;;5019437;28;20681;-67
2021/04/15 01:21:19;;;;;;;19.63;13.40;;;;;;;;;;5014899;28;20034;-67
2021/04/15 01:23:50;;;;;;;19.33;14.30;;;;;;;;;;5062366;28;20533;-66
2021/04/15 01:26:23;;;;;;;21.65;15.40;;;;;;;;;;5102601;28;20077;-67
2021/04/15 01:29:01;;;;;;;20.60;13.30;;;;;;;;;;5112669;28;20028;-67
2021/04/15 01:31:46;;;;;;;19.73;13.05;;;;;;;;;;5106876;28;20027;-65
2021/04/15 01:34:16;;;;;;;19.60;13.85;;;;;;;;;;5094034;28;20089;-67
2021/04/15 01:36:45;;;;;;;20.55;14.05;;;;;;;;;;5109406;28;20024;-66
2021/04/15 01:39:16;;;;;;;18.67;12.90;;;;;;;;;;5095830;28;20020;-66
2021/04/15 01:41:47;;;;;;;20.48;13.23;;;;;;;;;;5108454;28;20032;-67
2021/04/15 01:44:15;;;;;;;20.52;12.77;;;;;;;;;;5105427;28;20039;-66
2021/04/15 01:46:42;;;;;;;19.38;14.05;;;;;;;;;;5102586;28;20437;-65
2021/04/15 01:49:10;;;;;;;20.17;12.75;;;;;;;;;;5113312;28;20103;-64
2021/04/15 01:51:38;;;;;;;18.92;13.82;;;;;;;;;;5105287;28;20055;-67
2021/04/15 01:54:14;;;;;;;21.50;13.93;;;;;;;;;;5105739;28;20084;-66
2021/04/15 01:56:41;;;;;;;18.40;12.27;;;;;;;;;;5102408;28;20027;-64
2021/04/15 01:59:16;;;;;;;17.52;12.13;;;;;;;;;;5095841;28;20074;-62
2021/04/15 02:01:45;;;;;;;17.88;12.48;;;;;;;;;;5112065;28;20036;-65
2021/04/15 02:04:14;;;;;;;17.52;12.80;;;;;;;;;;5111990;28;20016;-67
2021/04/15 02:06:41;;;;;;;21.38;14.25;;;;;;;;;;5094211;28;20597;-66
2021/04/15 02:09:09;;;;;;;19.40;13.80;;;;;;;;;;5113513;28;20474;-67
2021/04/15 02:12:01;;;;;;;20.58;13.10;;;;;;;;;;5114859;28;20019;-67
2021/04/15 02:14:29;;;;;;;18.45;12.98;;;;;;;;;;5107449;28;20120;-67
2021/04/15 02:16:56;;;;;;;19.33;12.70;;;;;;;;;;5107494;28;20386;-66
2021/04/15 02:19:24;;;;;;;21.33;13.68;;;;;;;;;;5101497;28;20050;-66
2021/04/15 02:21:53;;;;;;;17.88;13.35;;;;;;;;;;5096272;28;20028;-67
2021/04/15 02:24:25;;;;;;;24.88;13.55;;;;;;;;;;5105706;28;20111;-68
2021/04/15 02:26:53;;;;;;;21.35;13.32;;;;;;;;;;5111522;28;20674;-67
2021/04/15 02:29:22;;;;;;;16.10;12.70;;;;;;;;;;5100229;28;20057;-67
2021/04/15 02:31:50;;;;;;;18.35;13.50;;;;;;;;;;5107759;28;20028;-66
2021/04/15 02:34:23;;;;;;;18.67;13.10;;;;;;;;;;5093724;28;20028;-67
2021/04/15 02:36:54;;;;;;;20.90;13.52;;;;;;;;;;5097498;28;20031;-67
2021/04/15 02:39:34;;;;;;;23.92;13.93;;;;;;;;;;5105960;28;20039;-67
2021/04/15 02:42:08;;;;;;;20.50;13.07;;;;;;;;;;5094297;28;20418;-67
2021/04/15 02:44:57;;;;;;;19.90;13.75;;;;;;;;;;5103607;28;20039;-66
2021/04/15 02:47:29;;;;;;;21.65;12.40;;;;;;;;;;5095366;28;20047;-65
2021/04/15 02:49:56;;;;;;;20.98;12.40;;;;;;;;;;5109147;28;20424;-66
2021/04/15 02:52:25;;;;;;;20.75;14.43;;;;;;;;;;5107602;28;20055;-66
2021/04/15 02:54:54;;;;;;;20.23;12.95;;;;;;;;;;5095231;28;20016;-65
2021/04/15 02:57:25;;;;;;;21.60;14.05;;;;;;;;;;5102329;28;20493;-66
2021/04/15 03:00:06;;;;;;;23.90;13.52;;;;;;;;;;5111371;28;20108;-68
2021/04/15 03:02:34;;;;;;;20.73;13.18;;;;;;;;;;5096043;28;20048;-67
2021/04/15 03:05:09;;;;;;;19.27;12.90;;;;;;;;;;5095213;28;20024;-65
2021/04/15 03:07:35;;;;;;;;;;;;;;;;;;5094507;28;20020;-66
2021/04/15 03:10:02;;;;;;;19.48;13.48;;;;;;;;;;5095509;28;19919;-66
2021/04/15 03:12:40;;;;;;;19.92;13.13;;;;;;;;;;5109100;28;20016;-63
2021/04/15 03:15:17;;;;;;;19.58;11.88;;;;;;;;;;5111436;28;20374;-64
2021/04/15 03:17:45;;;;;;;19.23;12.48;;;;;;;;;;5119939;28;20023;-67
2021/04/15 03:20:16;;;;;;;18.95;12.25;;;;;;;;;;5113050;28;20541;-65
2021/04/15 03:22:48;;;;;;;14.73;11.18;;;;;;;;;;5101431;28;20032;-66
2021/04/15 03:25:14;;;;;;;13.63;10.48;;;;;;;;;;5106872;28;20081;-67
2021/04/15 03:27:59;;;;;;;14.25;11.32;;;;;;;;;;5098622;28;20054;-63
2021/04/15 03:30:28;;;;;;;13.75;11.02;;;;;;;;;;5115826;28;20085;-65
2021/04/15 03:32:57;;;;;;;15.32;11.77;;;;;;;;;;5112707;28;20147;-67
2021/04/15 03:35:33;;;;;;;14.18;11.57;;;;;;;;;;5107213;28;20036;-66
2021/04/15 03:38:02;;;;;;;16.20;11.65;;;;;;;;;;5079124;28;20020;-66
2021/04/15 03:40:31;;;;;;;15.75;11.48;;;;;;;;;;5106615;28;20410;-66
2021/04/15 03:43:11;;;;;;;19.00;12.50;;;;;;;;;;5115003;28;21475;-70
2021/04/15 03:45:41;;;;;;;18.63;13.02;;;;;;;;;;5107917;28;20092;-66
2021/04/15 03:48:13;;;;;;;24.90;15.60;;;;;;;;;;5113730;28;20433;-65
2021/04/15 03:50:55;;;;;;;24.05;14.48;;;;;;;;;;5066631;28;20028;-66
2021/04/15 03:53:27;;;;;;;24.98;15.30;;;;;;;;;;5099624;28;20023;-66
2021/04/15 03:55:58;;;;;;;25.40;14.38;;;;;;;;;;5100069;28;20063;-65
2021/04/15 03:58:27;;;;;;;26.77;15.55;;;;;;;;;;5113349;28;20032;-66
2021/04/15 04:01:00;;;;;;;22.02;15.65;;;;;;;;;;5096138;28;20494;-66
2021/04/15 04:03:26;;;;;;;25.75;15.07;;;;;;;;;;5108481;28;20043;-67
2021/04/15 04:05:55;;;;;;;24.65;15.63;;;;;;;;;;5107065;28;20099;-66
2021/04/15 04:08:45;;;;;;;24.65;14.38;;;;;;;;;;5116219;28;20032;-67
2021/04/15 04:11:13;;;;;;;20.55;12.98;;;;;;;;;;5102500;28;20534;-65
2021/04/15 04:13:41;;;;;;;24.80;15.00;;;;;;;;;;5109813;28;20483;-66
2021/04/15 04:16:17;;;;;;;24.40;15.40;;;;;;;;;;5102302;28;20031;-66
2021/04/15 04:18:51;;;;;;;22.48;13.15;;;;;;;;;;5101885;28;20028;-66
2021/04/15 04:21:20;;;;;;;22.60;14.50;;;;;;;;;;5096385;28;20486;-66
2021/04/15 04:24:09;;;;;;;28.33;15.95;;;;;;;;;;5107728;28;20028;-66
2021/04/15 04:26:39;;;;;;;24.60;14.65;;;;;;;;;;5089909;28;20566;-66
2021/04/15 04:29:14;;;;;;;19.40;13.65;;;;;;;;;;5099519;28;20051;-65
2021/04/15 04:31:42;;;;;;;22.65;14.00;;;;;;;;;;5106346;28;20021;-66
2021/04/15 04:34:09;;;;;;;21.92;13.55;;;;;;;;;;5113487;28;20145;-65
2021/04/15 04:36:36;;;;;;;21.10;13.98;;;;;;;;;;5116195;28;20024;-66
2021/04/15 04:39:04;;;;;;;22.33;14.25;;;;;;;;;;5115144;28;20028;-64
2021/04/15 04:41:32;;;;;;;21.40;14.20;;;;;;;;;;5115017;28;20023;-65
2021/04/15 04:44:03;;;;;;;20.00;13.57;;;;;;;;;;5111527;28;20039;-66
2021/04/15 04:46:42;;;;;;;18.42;12.75;;;;;;;;;;5110860;28;20028;-66
2021/04/15 04:49:14;;;;;;;18.17;11.70;;;;;;;;;;5107767;28;20024;-66
2021/04/15 04:51:47;;;;;;;17.38;12.57;;;;;;;;;;5100320;28;20034;-66
2021/04/15 04:54:15;;;;;;;17.63;12.15;;;;;;;;;;5105754;28;20027;-66
2021/04/15 04:56:43;;;;;;;13.75;9.50;;;;;;;;;;5111228;28;20024;-66
2021/04/15 04:59:21;;;;;;;15.57;10.35;;;;;;;;;;5110830;28;20039;-66
2021/04/15 05:01:47;;;;;;;16.65;10.98;;;;;;;;;;5098231;28;20101;-65
2021/04/15 05:04:13;;;;;;;15.80;10.27;;;;;;;;;;5104875;28;20036;-65
2021/04/15 05:06:41;;;;;;;14.27;9.98;;;;;;;;;;5114190;28;20024;-65
2021/04/15 05:09:34;;;;;;;14.25;10.25;;;;;;;;;;5108952;28;20027;-68
2021/04/15 05:12:00;;;;;;;13.88;9.68;;;;;;;;;;5089783;28;20028;-66
2021/04/15 05:14:28;;;;;;;16.95;10.25;;;;;;;;;;5101647;28;20038;-66
2021/04/15 05:17:13;;;;;;;17.25;10.95;;;;;;;;;;5094395;28;20020;-66
2021/04/15 05:19:39;;;;;;;12.73;9.82;;;;;;;;;;5104353;28;20028;-66
2021/04/15 05:22:07;;;;;;;13.80;9.95;;;;;;;;;;5095435;28;20084;-66
2021/04/15 05:24:41;;;;;;;14.45;10.27;;;;;;;;;;5097741;28;20032;-66
2021/04/15 05:27:08;;;;;;;15.02;9.57;;;;;;;;;;5107636;28;20024;-65
2021/04/15 05:29:38;;;;;;;13.52;9.32;;;;;;;;;;5117957;28;20028;-65
2021/04/15 05:32:04;;;;;;;11.10;8.23;;;;;;;;;;5102638;28;20016;-65
2021/04/15 05:34:34;;;;;;;13.23;8.25;;;;;;;;;;5113492;28;20030;-66
2021/04/15 05:37:02;;;;;;;13.52;9.55;;;;;;;;;;5077990;28;20114;-67
2021/04/15 05:39:30;;;;;;;12.48;8.63;;;;;;;;;;5114650;28;20088;-64
2021/04/15 05:42:04;;;;;;;15.05;9.60;;;;;;;;;;5098816;28;20032;-66
2021/04/15 05:44:39;;;;;;;11.73;8.68;;;;;;;;;;5106178;28;20039;-66
2021/04/15 05:47:26;;;;;;;15.30;10.10;;;;;;;;;;5094036;28;20021;-66
2021/04/15 05:50:15;;;;;;;13.15;9.40;;;;;;;;;;5089730;28;20039;-63
2021/04/15 05:52:41;;;;;;;14.05;9.05;;;;;;;;;;5106875;28;20038;-66
2021/04/15 05:55:09;;;;;;;12.50;8.32;;;;;;;;;;5111484;28;20051;-65
2021/04/15 05:57:37;;;;;;;12.52;8.40;;;;;;;;;;5110549;28;20030;-65
2021/04/15 06:00:08;;;;;;;14.52;8.52;;;;;;;;;;5107676;28;20664;-65
2021/04/15 06:02:34;;;;;;;11.73;8.25;;;;;;;;;;5104372;28;20197;-64
2021/04/15 06:05:03;;;;;;;10.85;8.43;;;;;;;;;;5097960;28;20555;-64
2021/04/15 06:07:29;;;;;;;11.25;8.68;;;;;;;;;;5104615;28;20124;-66
2021/04/15 06:09:55;;;;;;;14.10;9.82;;;;;;;;;;5103063;28;20026;-66
2021/04/15 06:12:40;;;;;;;14.23;8.20;;;;;;;;;;5112462;28;20520;-65
2021/04/15 06:15:10;;;;;;;13.95;9.15;;;;;;;;;;5113577;28;20035;-65
2021/04/15 06:17:49;;;;;;;14.07;8.93;;;;;;;;;;5110998;28;20024;-66
2021/04/15 06:20:17;;;;;;;13.02;9.15;;;;;;;;;;5092644;28;20024;-66
2021/04/15 06:22:46;;;;;;;14.75;8.63;;;;;;;;;;5108266;28;20027;-66
2021/04/15 06:25:23;;;;;;;12.10;9.15;;;;;;;;;;5113611;28;20148;-66
2021/04/15 06:27:50;;;;;;;15.93;9.60;;;;;;;;;;5095504;28;20107;-65
2021/04/15 06:30:20;;;;;;;12.80;9.77;;;;;;;;;;5075853;28;20020;-65
2021/04/15 06:33:09;;;;;;;13.48;8.52;;;;;;;;;;5093071;28;20036;-65
2021/04/15 06:35:36;;;;;;;13.60;8.82;;;;;;;;;;5088809;28;20044;-66
2021/04/15 06:38:14;;;;;;;14.25;8.50;;;;;;;;;;5094771;28;20052;-64
2021/04/15 06:40:49;;;;;;;16.13;9.52;;;;;;;;;;5099761;28;20485;-66
2021/04/15 06:43:34;;;;;;;13.27;9.07;;;;;;;;;;5109227;28;20119;-65
2021/04/15 06:46:02;;;;;;;17.25;10.00;;;;;;;;;;5098321;28;20024;-66
2021/04/15 06:48:52;;;;;;;13.48;8.65;;;;;;;;;;5106315;28;20020;-65
2021/04/15 06:51:30;;;;;;;14.38;9.43;;;;;;;;;;5082850;28;20044;-67
2021/04/15 06:54:15;;;;;;;14.20;8.38;;;;;;;;;;5111129;28;20161;-66
2021/04/15 06:56:44;;;;;;;13.00;8.35;;;;;;;;;;5101188;28;20028;-63
2021/04/15 06:59:22;;;;;;;14.13;10.00;;;;;;;;;;5097169;28;20020;-62
2021/04/15 07:02:00;;;;;;;34.60;10.80;;;;;;;;;;5107561;28;20037;-66
2021/04/15 07:04:31;;;;;;;15.95;9.90;;;;;;;;;;5110907;28;20027;-67
2021/04/15 07:07:08;;;;;;;14.18;9.20;;;;;;;;;;5102678;28;20501;-67
2021/04/15 07:09:43;;;;;;;15.95;8.65;;;;;;;;;;5100380;28;20032;-65
2021/04/15 07:12:12;;;;;;;13.88;9.35;;;;;;;;;;5104961;28;20032;-65
2021/04/15 07:14:54;;;;;;;13.20;8.88;;;;;;;;;;5092580;28;20040;-65
2021/04/15 07:17:38;;;;;;;13.77;9.10;;;;;;;;;;5098909;28;20034;-65
2021/04/15 07:20:20;;;;;;;14.13;9.95;;;;;;;;;;5097225;28;20483;-67
2021/04/15 07:22:46;;;;;;;15.05;9.77;;;;;;;;;;5091332;28;20028;-64
2021/04/15 07:25:18;;;;;;;15.73;9.55;;;;;;;;;;5092249;28;20082;-66
2021/04/15 07:27:51;;;;;;;13.18;8.80;;;;;;;;;;5098918;28;20051;-65
2021/04/15 07:30:30;;;;;;;14.05;9.43;;;;;;;;;;5110161;28;20527;-66
2021/04/15 07:32:56;;;;;;;13.82;9.35;;;;;;;;;;5097526;28;20039;-65
2021/04/15 07:35:40;;;;;;;13.38;9.85;;;;;;;;;;5095369;28;20070;-66
2021/04/15 07:38:06;;;;;;;12.80;9.73;;;;;;;;;;5092189;28;20099;-66
2021/04/15 07:40:50;;;;;;;10.93;8.63;;;;;;;;;;5094546;28;20039;-68
2021/04/15 07:43:20;;;;;;;18.55;10.70;;;;;;;;;;5094943;28;20580;-67
2021/04/15 07:46:04;;;;;;;14.75;9.52;;;;;;;;;;5092719;28;20077;-67
2021/04/15 07:48:42;;;;;;;22.80;10.27;;;;;;;;;;5096942;28;20031;-66
2021/04/15 07:51:21;;;;;;;15.75;9.43;;;;;;;;;;5104711;28;20028;-64
2021/04/15 07:54:06;;;;;;;12.00;9.60;;;;;;;;;;5106473;28;20486;-66
2021/04/15 07:56:50;;;;;;;15.07;9.17;;;;;;;;;;5101555;28;20402;-65
2021/04/15 07:59:19;;;;;;;16.85;10.60;;;;;;;;;;5101062;28;20265;-65
2021/04/15 08:02:05;;;;;;;13.13;9.77;;;;;;;;;;5098651;28;20386;-66
2021/04/15 08:04:41;;;;;;;15.98;9.43;;;;;;;;;;5103491;28;20048;-65
2021/04/15 08:07:19;;;;;;;14.32;10.50;;;;;;;;;;5111642;28;20490;-64
2021/04/15 08:09:45;;;;;;;13.80;9.60;;;;;;;;;;5103898;28;20020;-66
2021/04/15 08:12:14;;;;;;;16.00;10.10;;;;;;;;;;5109475;28;20059;-66
2021/04/15 08:14:43;;;;;;;14.18;10.13;;;;;;;;;;5107655;28;20066;-66
2021/04/15 08:17:13;;;;;;;17.42;11.20;;;;;;;;;;5098968;28;20023;-65
2021/04/15 08:20:00;;;;;;;16.17;10.77;;;;;;;;;;5094758;28;20128;-65
2021/04/15 08:22:39;;;;;;;16.90;11.18;;;;;;;;;;5100299;28;20390;-65
2021/04/15 08:25:23;;;;;;;20.02;12.18;;;;;;;;;;5100177;28;20028;-64
2021/04/15 08:27:58;;;;;;;16.58;11.80;;;;;;;;;;5096470;28;20027;-66
2021/04/15 08:30:45;;;;;;;17.67;12.93;;;;;;;;;;5108219;28;20385;-65
2021/04/15 08:33:34;;;;;;;18.77;12.07;;;;;;;;;;5104653;28;20054;-66
2021/04/15 08:36:18;;;;;;;18.83;12.15;;;;;;;;;;5084533;28;20501;-65
2021/04/15 08:39:03;;;;;;;17.90;12.20;;;;;;;;;;5109660;28;20054;-65
2021/04/15 08:41:32;;;;;;;18.80;12.10;;;;;;;;;;5100430;28;20032;-64
2021/04/15 08:44:10;;;;;;;17.75;12.75;;;;;;;;;;5103320;28;20434;-65
2021/04/15 08:46:39;;;;;;;17.30;11.95;;;;;;;;;;5094116;28;20019;-66
2021/04/15 08:49:24;;;;;;;18.65;13.20;;;;;;;;;;5109433;28;20470;-65
2021/04/15 08:51:56;;;;;;;16.00;12.02;;;;;;;;;;5107986;28;20024;-67
2021/04/15 08:54:38;;;;;;;19.73;12.27;;;;;;;;;;5109915;28;20401;-66
2021/04/15 08:57:27;;;;;;;21.55;12.23;;;;;;;;;;5101225;28;20036;-67
2021/04/15 09:00:05;;;;;;;16.67;11.00;;;;;;;;;;5110843;28;20038;-65
2021/04/15 09:02:51;;;;;;;18.13;12.48;;;;;;;;;;5092136;28;20498;-65
2021/04/15 09:05:25;;;;;;;17.70;12.63;;;;;;;;;;5039313;28;20043;-66
2021/04/15 09:08:16;;;;;;;16.08;10.85;;;;;;;;;;5099347;28;20153;-65
2021/04/15 09:10:49;;;;;;;16.60;12.32;;;;;;;;;;5101639;28;20067;-66
2021/04/15 09:13:22;;;;;;;15.82;10.18;;;;;;;;;;5104576;28;20075;-65
2021/04/15 09:16:03;;;;;;;11.00;8.82;;;;;;;;;;5099810;28;20035;-66
2021/04/15 09:18:37;;;;;;;16.35;10.45;;;;;;;;;;5093922;28;20028;-65
2021/04/15 09:21:22;;;;;;;15.23;11.18;;;;;;;;;;5110362;28;20028;-66
2021/04/15 09:24:02;;;;;;;11.73;9.73;;;;;;;;;;5107725;28;20034;-65
2021/04/15 09:26:47;;;;;;;18.67;11.93;;;;;;;;;;5103087;28;20086;-65
2021/04/15 09:29:17;;;;;;;19.52;13.60;;;;;;;;;;5102469;28;20028;-66
2021/04/15 09:31:57;;;;;;;17.90;12.35;;;;;;;;;;5089738;28;20757;-65
2021/04/15 09:34:43;;;;;;;16.08;11.90;;;;;;;;;;5106300;28;20043;-66
2021/04/15 09:37:15;;;;;;;15.18;11.40;;;;;;;;;;5089346;28;20035;-66
2021/04/15 09:39:45;;;;;;;16.05;12.77;;;;;;;;;;5097287;28;20031;-64
2021/04/15 09:42:17;;;;;;;17.40;11.25;;;;;;;;;;5109391;28;20027;-66
2021/04/15 09:44:59;;;;;;;18.42;12.57;;;;;;;;;;5096099;28;20036;-66
2021/04/15 09:47:48;;;;;;;18.05;12.15;;;;;;;;;;5101583;28;20032;-67
2021/04/15 09:50:32;;;;;;;14.73;11.73;;;;;;;;;;5095574;28;20028;-66
2021/04/15 09:53:20;;;;;;;14.70;11.20;;;;;;;;;;5108479;28;20028;-65
2021/04/15 09:56:06;;;;;;;16.42;11.55;;;;;;;;;;5094680;28;20031;-66
2021/04/15 09:58:41;;;;;;;15.82;11.77;;;;;;;;;;5089445;28;20032;-67
2021/04/15 10:01:15;;;;;;;15.07;11.38;;;;;;;;;;5098983;28;20028;-67
2021/04/15 10:03:53;;;;;;;16.95;10.90;;;;;;;;;;5108676;28;20047;-66
2021/04/15 10:06:22;;;;;;;15.30;11.27;;;;;;;;;;5093914;28;20020;-65
2021/04/15 10:08:51;;;;;;;15.32;9.80;;;;;;;;;;5089581;28;20034;-66
2021/04/15 10:11:17;;;;;;;16.05;10.95;;;;;;;;;;5089128;28;20073;-66
2021/04/15 10:13:45;;;;;;;15.27;10.60;;;;;;;;;;5100192;28;20038;-67
2021/04/15 10:16:23;;;;;;;14.40;11.07;;;;;;;;;;5105115;28;20023;-64
2021/04/15 10:18:52;;;;;;;15.23;10.80;;;;;;;;;;5103641;28;20043;-66
2021/04/15 10:21:29;;;;;;;12.40;9.32;;;;;;;;;;5097820;28;20035;-66
2021/04/15 10:23:55;;;;;;;15.00;10.57;;;;;;;;;;5093022;28;20390;-67
2021/04/15 10:26:29;;;;;;;15.23;9.35;;;;;;;;;;5098257;28;20501;-67
2021/04/15 10:29:01;;;;;;;12.38;9.32;;;;;;;;;;5095088;28;20034;-67
2021/04/15 10:31:34;;;;;;;13.38;9.02;;;;;;;;;;5098404;28;20110;-67
2021/04/15 10:34:12;;;;;;;13.70;9.68;;;;;;;;;;5098253;28;20412;-68
2021/04/15 10:36:51;;;;;;;12.82;9.57;;;;;;;;;;5107985;28;20081;-67
2021/04/15 10:39:36;;;;;;;11.48;9.20;;;;;;;;;;5086559;28;20047;-66
2021/04/15 10:42:21;;;;;;;11.15;8.95;;;;;;;;;;5095489;28;20442;-66
2021/04/15 10:44:58;;;;;;;12.90;10.20;;;;;;;;;;5104468;28;20027;-65
2021/04/15 10:47:30;;;;;;;16.90;10.88;;;;;;;;;;5088588;28;20131;-65
2021/04/15 10:50:03;;;;;;;14.32;9.13;;;;;;;;;;5103315;28;20096;-66
2021/04/15 10:52:35;;;;;;;13.75;9.95;;;;;;;;;;5098027;28;20034;-66
2021/04/15 10:55:20;;;;;;;11.07;9.20;;;;;;;;;;5101560;28;20320;-66
2021/04/15 10:57:46;;;;;;;10.75;8.68;;;;;;;;;;5098008;28;20107;-67
2021/04/15 11:00:27;;;;;;;15.57;9.30;;;;;;;;;;5093835;28;20038;-64
2021/04/15 11:02:55;;;;;;;13.40;9.00;;;;;;;;;;5093555;28;20055;-66
2021/04/15 11:05:23;;;;;;;15.07;9.00;;;;;;;;;;5091052;28;20032;-64
2021/04/15 11:07:50;;;;;;;14.32;9.20;;;;;;;;;;5097025;28;20035;-66
2021/04/15 11:10:22;;;;;;;12.13;8.65;;;;;;;;;;5091910;28;20055;-66
2021/04/15 11:12:48;;;;;;;11.82;8.30;;;;;;;;;;5103390;28;20030;-66
2021/04/15 11:15:36;;;;;;;11.35;8.55;;;;;;;;;;5101455;28;20413;-65
2021/04/15 11:18:07;;;;;;;12.45;8.25;;;;;;;;;;5089301;28;20024;-66
2021/04/15 11:20:35;;;;;;;10.90;8.85;;;;;;;;;;5089366;28;20065;-66
2021/04/15 11:23:16;;;;;;;14.98;8.88;;;;;;;;;;5098997;28;20063;-65
2021/04/15 11:25:44;;;;;;;11.10;9.07;;;;;;;;;;5088737;28;20371;-65
2021/04/15 11:28:19;;;;;;;11.23;7.90;;;;;;;;;;5092972;28;20026;-67
2021/04/15 11:30:50;;;;;;;15.40;9.07;;;;;;;;;;5108090;28;20145;-66
2021/04/15 11:33:34;;;;;;;14.05;9.18;;;;;;;;;;5104603;28;20110;-66
2021/04/15 11:36:06;;;;;;;13.75;9.10;;;;;;;;;;5107837;28;20080;-65
2021/04/15 11:38:33;;;;;;;12.57;8.90;;;;;;;;;;5107858;28;20082;-66
2021/04/15 11:40:59;;;;;;;12.60;8.73;;;;;;;;;;5111893;28;20099;-66
2021/04/15 11:43:31;;;;;;;9.75;8.25;;;;;;;;;;5106380;28;20031;-65
2021/04/15 11:46:17;;;;;;;12.52;8.32;;;;;;;;;;5097530;28;20028;-66
2021/04/15 11:48:44;;;;;;;14.80;9.25;;;;;;;;;;5047382;28;20089;-65
2021/04/15 11:51:12;;;;;;;11.52;8.23;;;;;;;;;;5107421;28;20028;-65
2021/04/15 11:53:38;;;;;;;10.88;8.40;;;;;;;;;;5097852;28;20058;-65
2021/04/15 11:56:13;;;;;;;13.30;8.80;;;;;;;;;;5111378;28;20027;-65
2021/04/15 11:58:39;;;;;;;10.77;8.98;;;;;;;;;;5103371;28;20035;-67
2021/04/15 12:01:05;;;;;;;9.63;7.38;;;;;;;;;;5099094;28;20401;-66
2021/04/15 12:03:34;;;;;;;9.45;7.88;;;;;;;;;;5108785;28;20036;-64
2021/04/15 12:06:05;;;;;;;10.57;7.63;;;;;;;;;;5095255;28;20055;-66
2021/04/15 12:08:34;;;;;;;13.25;9.45;;;;;;;;;;5095027;28;20115;-66
2021/04/15 12:11:20;;;;;;;11.55;8.50;;;;;;;;;;5105612;28;20109;-65
2021/04/15 12:13:49;;;;;;;12.68;9.48;;;;;;;;;;5111973;28;20080;-69
2021/04/15 12:16:17;;;;;;;11.15;7.95;;;;;;;;;;5107530;28;20081;-65
2021/04/15 12:19:05;;;;;;;11.05;8.15;;;;;;;;;;5091520;28;20059;-66
2021/04/15 12:21:54;;;;;;;12.27;8.30;;;;;;;;;;5104810;28;20028;-65
2021/04/15 12:24:23;;;;;;;9.57;6.85;;;;;;;;;;5057931;28;20047;-65
2021/04/15 12:27:02;;;;;;;7.75;6.18;;;;;;;;;;5092516;28;20111;-65
2021/04/15 12:30:00;;;;;;;11.30;7.25;;;;;;;;;;5091221;28;20109;-65
2021/04/15 12:32:36;;;;;;;9.85;7.03;;;;;;;;;;5036880;28;20050;-64
2021/04/15 12:35:38;;;;;;;11.32;6.85;;;;;;;;;;5090999;28;20058;-65
2021/04/15 12:38:12;;;;;;;8.20;6.53;;;;;;;;;;5051487;28;20067;-64
2021/04/15 12:40:40;;;;;;;8.80;6.55;;;;;;;;;;5108647;28;20038;-66
2021/04/15 12:43:28;;;;;;;8.70;6.78;;;;;;;;;;5092089;28;20035;-66
2021/04/15 12:46:03;;;;;;;8.15;6.35;;;;;;;;;;5104247;28;20050;-65
2021/04/15 12:48:38;;;;;;;10.32;6.50;;;;;;;;;;5104926;28;20052;-65
2021/04/15 12:51:05;;;;;;;9.07;6.70;;;;;;;;;;5090941;28;20028;-65
2021/04/15 12:53:36;;;;;;;7.43;5.72;;;;;;;;;;5100593;28;20027;-66
2021/04/15 12:56:03;;;;;;;8.32;4.63;;;;;;;;;;5105838;28;20035;-64
2021/04/15 12:58:29;;;;;;;4.63;3.40;;;;;;;;;;5105605;28;20035;-65
2021/04/15 13:00:56;;;;;;;5.65;4.93;;;;;;;;;;5108957;28;20040;-66
2021/04/15 13:03:25;;;;;;;5.40;4.75;;;;;;;;;;5106260;28;20051;-66
2021/04/15 13:05:51;;;;;;;6.15;4.50;;;;;;;;;;5109611;28;20071;-67
2021/04/15 13:08:25;;;;;;;7.88;4.68;;;;;;;;;;5103757;28;20041;-65
2021/04/15 13:10:52;;;;;;;6.25;4.28;;;;;;;;;;5101168;28;20023;-66
2021/04/15 13:13:42;;;;;;;5.65;4.43;;;;;;;;;;5106856;28;20032;-66
2021/04/15 13:16:27;;;;;;;8.68;5.50;;;;;;;;;;5091954;28;20047;-67
2021/04/15 13:18:53;;;;;;;7.95;4.78;;;;;;;;;;5091345;28;20035;-68
2021/04/15 13:21:30;;;;;;;7.88;4.75;;;;;;;;;;5089832;28;20035;-67
2021/04/15 13:23:57;;;;;;;5.88;4.35;;;;;;;;;;5095266;28;20118;-65
2021/04/15 13:26:28;;;;;;;5.35;4.10;;;;;;;;;;5108662;28;20027;-65
2021/04/15 13:28:56;;;;;;;5.90;4.57;;;;;;;;;;5093033;28;20391;-67
2021/04/15 13:31:35;;;;;;;7.60;4.03;;;;;;;;;;5099736;28;20034;-66
2021/04/15 13:34:04;;;;;;;4.07;3.13;;;;;;;;;;5089296;28;20036;-67
2021/04/15 13:36:30;;;;;;;5.38;4.20;;;;;;;;;;5101833;28;20351;-66
2021/04/15 13:38:59;;;;;;;5.25;3.90;;;;;;;;;;5099861;28;20023;-66
2021/04/15 13:41:26;;;;;;;4.78;3.95;;;;;;;;;;5108669;28;21083;-66
2021/04/15 13:43:56;;;;;;;5.65;3.60;;;;;;;;;;5106264;28;20024;-66
2021/04/15 13:46:27;;;;;;;6.10;3.70;;;;;;;;;;5105820;28;20036;-67
2021/04/15 13:48:57;;;;;;;4.15;3.72;;;;;;;;;;5093476;28;20479;-66
2021/04/15 13:51:38;;;;;;;6.57;3.83;;;;;;;;;;5100137;28;20501;-67
2021/04/15 13:54:07;;;;;;;7.35;4.30;;;;;;;;;;5109255;28;20394;-66
2021/04/15 13:56:42;;;;;;;4.47;4.07;;;;;;;;;;5098736;28;20489;-67
2021/04/15 13:59:27;;;;;;;5.07;4.00;;;;;;;;;;5104496;28;20031;-66
2021/04/15 14:01:53;;;;;;;4.70;4.20;;;;;;;;;;5106988;28;20031;-67
2021/04/15 14:04:38;;;;;;;3.72;3.35;;;;;;;;;;5108844;28;20043;-67
2021/04/15 14:07:22;;;;;;;5.00;3.53;;;;;;;;;;5093836;28;20494;-67
2021/04/15 14:09:54;;;;;;;4.35;3.67;;;;;;;;;;5094208;28;21507;-67
2021/04/15 14:12:39;;;;;;;5.78;3.70;;;;;;;;;;5108110;28;20032;-65
2021/04/15 14:15:26;;;;;;;4.35;3.90;;;;;;;;;;5094578;28;20035;-66
2021/04/15 14:17:54;;;;;;;4.68;4.18;;;;;;;;;;5095193;28;20646;-67
2021/04/15 14:20:38;;;;;;;4.72;4.22;;;;;;;;;;5105475;28;20040;-66
2021/04/15 14:23:05;;;;;;;6.60;4.60;;;;;;;;;;5106974;28;20035;-65
2021/04/15 14:25:33;;;;;;;5.63;4.50;;;;;;;;;;5108582;28;20059;-65
2021/04/15 14:28:00;;;;;;;8.00;5.38;;;;;;;;;;5103373;28;20027;-65
2021/04/15 14:30:29;;;;;;;9.93;5.53;;;;;;;;;;5099664;28;20036;-65
2021/04/15 14:32:55;;;;;;;6.38;5.55;;;;;;;;;;5103660;28;20108;-66
2021/04/15 14:35:23;;;;;;;6.03;5.40;;;;;;;;;;5107989;28;20031;-66
2021/04/15 14:37:50;;;;;;;6.43;5.10;;;;;;;;;;5089311;28;20452;-67
2021/04/15 14:40:38;;;;;;;5.50;5.00;;;;;;;;;;5096439;28;20028;-65
2021/04/15 14:43:26;;;;;;;5.80;5.20;;;;;;;;;;5099699;28;20043;-65
2021/04/15 14:45:52;;;;;;;9.00;5.60;;;;;;;;;;5101269;28;20565;-66
2021/04/15 14:48:20;;;;;;;7.68;5.30;;;;;;;;;;5089260;28;20562;-67
2021/04/15 14:50:46;;;;;;;6.00;5.40;;;;;;;;;;5097511;28;20080;-65
2021/04/15 14:53:17;;;;;;;5.97;5.43;;;;;;;;;;5108592;28;20032;-66
2021/04/15 14:55:45;;;;;;;6.15;5.10;;;;;;;;;;5088578;28;20055;-66
2021/04/15 14:58:14;;;;;;;8.70;5.63;;;;;;;;;;5097603;28;20055;-66
2021/04/15 15:00:42;;;;;;;7.75;6.32;;;;;;;;;;5100854;28;20547;-66
2021/04/15 15:03:08;;;;;;;6.50;5.70;;;;;;;;;;5097828;28;20048;-65